X  Sluiten METAR luchtvaart weer gegevens      EGGW London Luton Airport
Temperatuur
13°C Temperatuur
8°C Dauwpunt
72% Vochtigheid



Wind
19 KM/U
12 MPH
5 M/S
10 KTS



20°
NNO
Huidig weer

Unknown Unknown
Luchtdruk 1018.92 (hPa) - 30.09 (inHg)
Zicht 6.2 (mijl) - 10 (km)
Vliegveld
Vliegveld code EGGW

Locatie : London Luton Airport
Afstand: 18 (km)

Metar:
EGGW 241820Z AUTO 02010KT 9999 //////TCU 13/08 Q1019

Tijd: 24-09-2022 19:20 BST